Time;durP1;ratioP1;P1;durP2;ratioP2;P2;SDS_P1;SDS_P2;PMS_P1;PMS_P2;Temp;Humidity;BMP_temperature;BMP_pressure;BME280_temperature;BME280_humidity;BME280_pressure;Samples;Min_cycle;Max_cycle;Signal;HPM_P1;HPM_P2
2021/01/20 00:01:56;;;;;;;1.83;1.00;;;1.70;89.80;;;;;;5053804;28;20033;-64
2021/01/20 00:04:22;;;;;;;1.55;1.08;;;1.70;90.10;;;;;;5053935;28;20029;-65
2021/01/20 00:06:49;;;;;;;1.85;0.90;;;1.70;89.60;;;;;;5053127;28;20031;-66
2021/01/20 00:09:14;;;;;;;1.83;1.30;;;1.70;90.00;;;;;;5053092;28;20021;-62
2021/01/20 00:11:40;;;;;;;1.38;0.90;;;1.70;90.20;;;;;;5055480;28;20326;-63
2021/01/20 00:14:06;;;;;;;2.00;1.13;;;1.70;90.30;;;;;;5053333;28;20040;-62
2021/01/20 00:16:32;;;;;;;1.92;1.10;;;1.70;90.10;;;;;;5068455;28;20101;-63
2021/01/20 00:18:57;;;;;;;2.17;1.02;;;1.60;90.70;;;;;;5054643;28;20036;-63
2021/01/20 00:21:23;;;;;;;3.45;1.20;;;1.60;90.80;;;;;;5051655;28;20040;-65
2021/01/20 00:23:50;;;;;;;3.13;1.50;;;1.60;91.90;;;;;;5052814;28;20041;-62
2021/01/20 00:26:16;;;;;;;2.38;1.60;;;1.50;91.80;;;;;;5069991;28;20035;-62
2021/01/20 00:28:42;;;;;;;3.28;1.45;;;1.50;92.10;;;;;;5067140;28;20023;-63
2021/01/20 00:31:07;;;;;;;2.38;1.48;;;1.50;92.50;;;;;;5056026;28;20115;-63
2021/01/20 00:33:33;;;;;;;2.22;1.30;;;1.50;91.70;;;;;;5051995;28;20033;-63
2021/01/20 00:35:59;;;;;;;3.28;1.63;;;1.60;91.20;;;;;;5051950;28;20033;-63
2021/01/20 00:38:24;;;;;;;2.97;1.27;;;1.60;91.40;;;;;;5053180;28;20062;-65
2021/01/20 00:40:50;;;;;;;2.10;1.50;;;1.60;91.40;;;;;;5056988;28;20087;-63
2021/01/20 00:43:16;;;;;;;2.70;1.33;;;1.60;91.70;;;;;;5035602;28;20046;-63
2021/01/20 00:45:41;;;;;;;2.28;1.10;;;1.50;92.70;;;;;;5031990;28;20071;-63
2021/01/20 00:48:11;;;;;;;4.13;1.88;;;1.40;92.80;;;;;;5039048;28;20030;-64
2021/01/20 00:50:37;;;;;;;2.60;1.27;;;1.30;93.30;;;;;;5032093;28;20033;-64
2021/01/20 00:53:03;;;;;;;1.90;1.08;;;1.30;94.80;;;;;;5033073;28;20049;-63
2021/01/20 00:55:29;;;;;;;3.28;1.48;;;1.40;93.30;;;;;;5032430;28;20467;-65
2021/01/20 00:57:55;;;;;;;7.47;2.85;;;1.50;93.80;;;;;;5015905;28;20072;-65
2021/01/20 01:00:21;;;;;;;1.42;0.98;;;1.60;94.10;;;;;;5039892;28;20037;-63
2021/01/20 01:02:49;;;;;;;2.13;0.93;;;1.60;94.00;;;;;;5037471;28;20531;-63
2021/01/20 01:05:15;;;;;;;2.35;1.10;;;1.60;94.80;;;;;;5033933;28;20033;-64
2021/01/20 01:07:41;;;;;;;1.42;1.13;;;1.50;94.70;;;;;;5031833;28;20064;-63
2021/01/20 01:10:07;;;;;;;1.52;0.98;;;1.50;95.40;;;;;;5032585;28;20065;-63
2021/01/20 01:12:33;;;;;;;2.08;1.02;;;1.50;95.50;;;;;;5031928;28;20417;-64
2021/01/20 01:14:59;;;;;;;1.40;0.90;;;1.60;95.80;;;;;;5032346;28;20039;-64
2021/01/20 01:17:24;;;;;;;2.85;0.63;;;1.60;95.50;;;;;;5034961;28;20029;-65
2021/01/20 01:19:50;;;;;;;1.45;0.80;;;1.60;96.20;;;;;;5047849;28;20029;-63
2021/01/20 01:22:16;;;;;;;3.33;1.15;;;1.60;96.30;;;;;;5031752;28;20111;-63
2021/01/20 01:24:42;;;;;;;2.45;1.17;;;1.60;96.50;;;;;;5032144;28;20064;-63
2021/01/20 01:27:07;;;;;;;2.55;1.30;;;1.60;96.60;;;;;;5031465;28;20488;-64
2021/01/20 01:29:33;;;;;;;2.60;1.25;;;1.60;96.70;;;;;;5018685;28;20033;-64
2021/01/20 01:31:59;;;;;;;3.38;1.67;;;1.50;97.10;;;;;;5039526;28;20402;-64
2021/01/20 01:34:24;;;;;;;2.72;1.65;;;1.50;97.20;;;;;;5022871;28;20040;-66
2021/01/20 01:36:50;;;;;;;2.90;1.15;;;1.50;97.70;;;;;;5031572;28;20531;-64
2021/01/20 01:39:16;;;;;;;3.13;1.30;;;1.50;97.10;;;;;;5040856;28;20035;-65
2021/01/20 01:41:42;;;;;;;3.28;1.67;;;1.50;96.80;;;;;;5016186;28;20057;-64
2021/01/20 01:44:08;;;;;;;3.28;1.77;;;1.50;97.10;;;;;;5036971;28;20454;-64
2021/01/20 01:46:34;;;;;;;2.67;1.20;;;1.50;97.40;;;;;;5041926;28;20513;-64
2021/01/20 01:49:00;;;;;;;1.58;0.95;;;1.40;97.50;;;;;;5038716;28;20029;-64
2021/01/20 01:51:26;;;;;;;2.30;1.30;;;1.40;97.40;;;;;;5038827;28;20479;-63
2021/01/20 01:53:52;;;;;;;2.83;1.50;;;1.30;97.80;;;;;;5031168;28;20111;-64
2021/01/20 01:56:18;;;;;;;3.35;1.33;;;1.30;97.80;;;;;;5031143;28;20397;-63
2021/01/20 01:58:47;;;;;;;2.90;1.20;;;1.30;98.20;;;;;;5046127;28;20029;-63
2021/01/20 02:01:14;;;;;;;3.72;1.52;;;1.30;98.50;;;;;;5048072;28;20124;-65
2021/01/20 02:03:39;;;;;;;1.98;1.00;;;1.30;98.40;;;;;;5043215;28;20506;-63
2021/01/20 02:06:05;;;;;;;2.88;1.30;;;1.30;98.40;;;;;;5037369;28;20033;-63
2021/01/20 02:08:32;;;;;;;1.77;1.27;;;1.30;98.60;;;;;;5038567;28;20037;-64
2021/01/20 02:11:09;;;;;;;2.38;1.00;;;1.20;98.70;;;;;;5031172;28;20045;-64
2021/01/20 02:13:43;;;;;;;2.22;1.13;;;1.20;99.40;;;;;;5030238;28;20095;-64
2021/01/20 02:16:22;;;;;;;1.55;0.90;;;1.20;99.90;;;;;;5031513;28;20076;-64
2021/01/20 02:18:52;;;;;;;1.65;0.77;;;1.30;99.90;;;;;;5048133;28;20036;-63
2021/01/20 02:21:43;;;;;;;1.63;1.00;;;1.50;99.10;;;;;;5044810;28;20033;-64
2021/01/20 02:24:11;;;;;;;2.00;0.80;;;1.70;98.30;;;;;;5043350;28;20143;-64
2021/01/20 02:27:06;;;;;;;1.27;1.00;;;1.90;96.70;;;;;;5050240;28;20096;-64
2021/01/20 02:29:56;;;;;;;3.10;0.98;;;2.10;95.30;;;;;;5049933;28;20025;-64
2021/01/20 02:32:22;;;;;;;;;;;2.30;94.00;;;;;;5039203;28;20033;-64
2021/01/20 02:34:49;;;;;;;1.05;0.70;;;2.50;93.10;;;;;;5030317;28;19904;-63
2021/01/20 02:37:16;;;;;;;1.48;1.08;;;2.60;92.40;;;;;;5031070;28;20087;-64
2021/01/20 02:39:43;;;;;;;2.70;1.02;;;2.70;91.80;;;;;;5044484;28;20534;-62
2021/01/20 02:42:09;;;;;;;1.77;0.73;;;2.70;91.40;;;;;;5046972;28;20440;-62
2021/01/20 02:44:39;;;;;;;1.15;0.85;;;2.80;90.80;;;;;;5031479;28;20029;-62
2021/01/20 02:47:07;;;;;;;1.45;0.75;;;2.90;90.40;;;;;;5049767;28;20040;-62
2021/01/20 02:49:34;;;;;;;1.45;0.75;;;3.10;89.60;;;;;;5030296;28;20037;-62
2021/01/20 02:52:13;;;;;;;1.92;0.90;;;3.20;88.60;;;;;;5031151;28;20072;-64
2021/01/20 02:54:41;;;;;;;1.55;0.63;;;3.30;87.90;;;;;;5043341;28;20021;-63
2021/01/20 02:57:07;;;;;;;1.38;1.00;;;3.40;87.60;;;;;;5038451;28;20033;-62
2021/01/20 02:59:34;;;;;;;1.15;0.73;;;3.40;87.70;;;;;;5051704;28;20051;-63
2021/01/20 03:02:05;;;;;;;2.15;0.80;;;3.40;87.70;;;;;;5030745;28;20029;-62
2021/01/20 03:04:32;;;;;;;1.20;0.60;;;3.40;88.00;;;;;;5031956;28;20033;-63
2021/01/20 03:07:00;;;;;;;1.13;0.80;;;3.40;87.90;;;;;;5031074;28;20055;-62
2021/01/20 03:09:26;;;;;;;1.85;1.00;;;3.30;88.30;;;;;;5034013;28;20034;-64
2021/01/20 03:11:52;;;;;;;1.83;0.88;;;3.30;88.70;;;;;;5036152;28;20041;-63
2021/01/20 03:14:24;;;;;;;0.68;0.60;;;3.20;88.70;;;;;;5031589;28;20029;-63
2021/01/20 03:16:50;;;;;;;0.75;0.60;;;3.30;89.00;;;;;;5030219;28;20037;-63
2021/01/20 03:19:16;;;;;;;1.05;0.73;;;3.30;88.70;;;;;;5039022;28;20056;-62
2021/01/20 03:21:41;;;;;;;1.52;0.90;;;3.20;88.60;;;;;;5012749;28;20083;-63
2021/01/20 03:24:08;;;;;;;1.02;0.65;;;3.20;88.90;;;;;;5030743;28;20368;-62
2021/01/20 03:26:34;;;;;;;1.15;0.90;;;3.20;89.00;;;;;;5029994;28;20533;-63
2021/01/20 03:29:00;;;;;;;1.27;0.70;;;3.10;89.20;;;;;;5049872;28;20477;-63
2021/01/20 03:31:26;;;;;;;1.58;0.70;;;3.10;89.40;;;;;;5030152;28;20459;-64
2021/01/20 03:33:51;;;;;;;1.23;0.70;;;3.10;89.70;;;;;;5044966;28;20056;-62
2021/01/20 03:36:17;;;;;;;1.13;0.80;;;3.10;89.90;;;;;;5049700;28;20031;-62
2021/01/20 03:38:43;;;;;;;1.52;1.00;;;3.00;90.00;;;;;;5045989;28;20033;-62
2021/01/20 03:41:09;;;;;;;1.25;0.70;;;3.10;89.70;;;;;;5030195;28;20087;-64
2021/01/20 03:43:34;;;;;;;1.45;0.70;;;3.10;89.80;;;;;;5050027;28;20114;-62
2021/01/20 03:46:00;;;;;;;1.05;0.70;;;3.00;90.20;;;;;;5054146;28;20053;-62
2021/01/20 03:48:26;;;;;;;1.00;0.70;;;3.00;90.40;;;;;;5054415;28;20052;-62
2021/01/20 03:50:52;;;;;;;1.10;0.70;;;3.00;90.40;;;;;;5053884;28;20063;-62
2021/01/20 03:53:17;;;;;;;2.08;0.73;;;2.90;90.80;;;;;;5055048;28;20025;-62
2021/01/20 03:55:43;;;;;;;1.27;0.75;;;2.80;91.30;;;;;;5060947;28;20032;-62
2021/01/20 03:58:09;;;;;;;1.48;0.90;;;2.80;91.60;;;;;;5055078;28;20037;-62
2021/01/20 04:00:34;;;;;;;1.35;0.90;;;2.80;91.80;;;;;;5055942;28;20473;-62
2021/01/20 04:03:00;;;;;;;2.53;0.95;;;2.80;91.30;;;;;;5066426;28;20056;-63
2021/01/20 04:05:26;;;;;;;2.03;1.13;;;2.70;92.20;;;;;;5053774;28;20036;-62
2021/01/20 04:07:52;;;;;;;2.30;1.35;;;2.60;92.40;;;;;;5058405;28;20029;-62
2021/01/20 04:10:17;;;;;;;2.58;1.30;;;2.50;92.90;;;;;;5055672;28;20029;-62
2021/01/20 04:12:43;;;;;;;2.40;1.40;;;2.30;93.40;;;;;;5053382;28;20033;-62
2021/01/20 04:15:09;;;;;;;2.72;1.40;;;2.30;94.30;;;;;;5054021;28;20017;-62
2021/01/20 04:17:35;;;;;;;4.50;2.50;;;2.20;94.70;;;;;;5052680;28;20098;-62
2021/01/20 04:20:03;;;;;;;4.05;2.20;;;2.10;95.60;;;;;;5069942;28;20029;-63
2021/01/20 04:22:28;;;;;;;2.67;1.80;;;2.00;96.60;;;;;;5057235;28;20389;-65
2021/01/20 04:24:54;;;;;;;2.95;1.48;;;2.00;96.90;;;;;;5054007;28;20035;-62
2021/01/20 04:27:20;;;;;;;2.70;1.15;;;1.90;96.90;;;;;;5061173;28;20465;-64
2021/01/20 04:29:45;;;;;;;1.35;0.75;;;2.00;96.50;;;;;;5065077;28;20055;-63
2021/01/20 04:32:11;;;;;;;1.75;1.27;;;1.90;96.40;;;;;;5053489;28;20037;-62
2021/01/20 04:34:37;;;;;;;2.40;1.20;;;2.00;96.50;;;;;;5058267;28;20446;-62
2021/01/20 04:37:03;;;;;;;1.55;1.02;;;2.00;95.90;;;;;;5052161;28;20040;-63
2021/01/20 04:39:29;;;;;;;2.92;0.90;;;2.10;95.40;;;;;;5067921;28;20032;-63
2021/01/20 04:41:54;;;;;;;0.55;0.55;;;2.20;94.70;;;;;;5074422;28;20051;-62
2021/01/20 04:44:21;;;;;;;4.60;1.02;;;2.40;93.50;;;;;;5055790;28;20462;-63
2021/01/20 04:46:47;;;;;;;1.10;0.80;;;2.50;92.60;;;;;;5052674;28;20032;-63
2021/01/20 04:49:16;;;;;;;1.52;0.80;;;2.60;92.30;;;;;;5057945;28;20111;-62
2021/01/20 04:51:43;;;;;;;1.40;0.80;;;2.60;92.20;;;;;;5071704;28;20089;-62
2021/01/20 04:54:11;;;;;;;0.68;0.68;;;2.60;91.90;;;;;;5066913;28;20029;-62
2021/01/20 04:56:38;;;;;;;0.95;0.70;;;2.70;91.70;;;;;;5069929;28;20373;-62
2021/01/20 04:59:04;;;;;;;1.48;0.85;;;2.70;91.30;;;;;;5057399;28;20039;-62
2021/01/20 05:01:31;;;;;;;1.15;0.80;;;2.70;91.40;;;;;;5071861;28;20031;-63
2021/01/20 05:03:58;;;;;;;2.25;0.93;;;2.70;91.30;;;;;;5070746;28;20032;-62
2021/01/20 05:06:24;;;;;;;0.98;0.70;;;2.70;91.00;;;;;;5052631;28;20486;-63
2021/01/20 05:08:50;;;;;;;1.80;0.68;;;2.80;91.00;;;;;;5052590;28;20032;-62
2021/01/20 05:11:15;;;;;;;3.08;0.75;;;2.80;90.80;;;;;;5051786;28;20044;-63
2021/01/20 05:13:42;;;;;;;1.20;0.80;;;2.80;90.80;;;;;;5056515;28;20028;-62
2021/01/20 05:16:13;;;;;;;1.85;0.77;;;2.80;90.60;;;;;;5060815;28;20025;-62
2021/01/20 05:18:48;;;;;;;1.15;0.73;;;2.80;90.90;;;;;;5053642;28;20025;-62
2021/01/20 05:21:17;;;;;;;1.38;0.70;;;2.80;90.80;;;;;;5072050;28;20044;-63
2021/01/20 05:23:43;;;;;;;2.63;0.70;;;2.70;90.80;;;;;;5069749;28;20529;-62
2021/01/20 05:26:08;;;;;;;1.42;0.82;;;2.80;90.70;;;;;;5071464;28;20119;-62
2021/01/20 05:28:35;;;;;;;2.10;0.98;;;2.80;90.00;;;;;;5062233;28;20063;-62
2021/01/20 05:31:03;;;;;;;1.85;0.82;;;2.90;89.60;;;;;;5062540;28;20098;-62
2021/01/20 05:33:33;;;;;;;1.58;0.80;;;3.00;88.60;;;;;;5070248;28;20473;-66
2021/01/20 05:36:12;;;;;;;3.05;0.98;;;3.10;86.60;;;;;;5058811;28;20377;-63
2021/01/20 05:38:39;;;;;;;1.35;1.00;;;3.20;85.30;;;;;;5053164;28;20033;-64
2021/01/20 05:41:31;;;;;;;0.95;0.60;;;3.40;84.20;;;;;;5078084;28;20044;-64
2021/01/20 05:44:08;;;;;;;1.15;0.80;;;3.60;83.00;;;;;;5055530;28;20051;-63
2021/01/20 05:46:36;;;;;;;1.58;0.80;;;3.70;82.50;;;;;;5071091;28;20040;-63
2021/01/20 05:49:03;;;;;;;1.60;0.80;;;3.80;81.80;;;;;;5067995;28;20036;-66
2021/01/20 05:51:42;;;;;;;1.88;1.02;;;3.80;82.20;;;;;;5059085;28;20044;-65
2021/01/20 05:54:09;;;;;;;2.20;0.70;;;3.90;81.10;;;;;;5055274;28;20025;-62
2021/01/20 05:56:35;;;;;;;1.75;0.80;;;3.90;80.90;;;;;;5058689;28;20045;-63
2021/01/20 05:59:09;;;;;;;1.23;0.73;;;4.00;79.30;;;;;;5065350;28;20108;-63
2021/01/20 06:01:35;;;;;;;1.23;0.73;;;4.10;78.70;;;;;;5052447;28;20047;-64
2021/01/20 06:04:01;;;;;;;1.67;1.00;;;4.20;78.70;;;;;;5055023;28;20033;-63
2021/01/20 06:06:28;;;;;;;3.03;1.00;;;4.20;78.60;;;;;;5052354;28;20473;-63
2021/01/20 06:08:56;;;;;;;1.83;0.90;;;4.20;78.40;;;;;;5065213;28;20028;-63
2021/01/20 06:11:22;;;;;;;1.70;1.20;;;4.20;78.10;;;;;;5071078;28;20028;-64
2021/01/20 06:13:49;;;;;;;2.50;1.02;;;4.20;78.10;;;;;;5061020;28;20446;-64
2021/01/20 06:16:16;;;;;;;2.35;1.00;;;4.30;78.40;;;;;;5070982;28;20465;-64
2021/01/20 06:18:47;;;;;;;1.20;0.90;;;4.20;78.80;;;;;;5069303;28;20099;-65
2021/01/20 06:21:15;;;;;;;1.77;1.10;;;4.20;78.90;;;;;;5051484;28;20044;-64
2021/01/20 06:23:50;;;;;;;2.15;0.95;;;4.10;79.10;;;;;;5050958;28;20106;-63
2021/01/20 06:26:16;;;;;;;1.88;0.95;;;4.00;79.40;;;;;;5066211;28;20021;-63
2021/01/20 06:28:50;;;;;;;8.73;1.15;;;4.00;80.10;;;;;;5064697;28;20032;-63
2021/01/20 06:31:17;;;;;;;2.60;1.10;;;3.90;80.10;;;;;;5069465;28;20028;-63
2021/01/20 06:33:42;;;;;;;2.05;0.90;;;3.90;80.30;;;;;;5070080;28;20107;-62
2021/01/20 06:36:08;;;;;;;0.80;0.70;;;3.80;79.90;;;;;;5070687;28;20107;-64
2021/01/20 06:38:36;;;;;;;1.77;1.20;;;3.90;80.50;;;;;;5067853;28;20020;-63
2021/01/20 06:41:30;;;;;;;1.27;0.80;;;3.90;80.10;;;;;;5059233;28;20029;-63
2021/01/20 06:44:10;;;;;;;1.25;0.80;;;3.80;80.20;;;;;;5051184;28;20037;-63
2021/01/20 06:46:35;;;;;;;0.95;0.80;;;3.80;80.70;;;;;;5050511;28;20017;-63
2021/01/20 06:49:01;;;;;;;1.90;0.90;;;3.80;80.90;;;;;;5049892;28;20055;-63
2021/01/20 06:51:28;;;;;;;2.22;1.27;;;3.70;81.10;;;;;;5050669;28;20090;-63
2021/01/20 06:54:14;;;;;;;1.77;1.10;;;3.70;81.40;;;;;;5049552;28;20040;-63
2021/01/20 06:56:59;;;;;;;0.98;0.88;;;3.70;81.40;;;;;;5050608;28;20028;-63
2021/01/20 06:59:27;;;;;;;1.88;1.00;;;3.70;81.00;;;;;;5055003;28;20380;-62
2021/01/20 07:02:02;;;;;;;2.25;1.30;;;3.70;80.30;;;;;;5048262;28;20045;-63
2021/01/20 07:04:36;;;;;;;2.10;0.95;;;3.80;80.90;;;;;;5057930;28;20033;-63
2021/01/20 07:07:06;;;;;;;2.28;0.93;;;3.80;80.40;;;;;;5050433;28;20086;-63
2021/01/20 07:09:49;;;;;;;2.10;1.20;;;3.80;80.70;;;;;;5049438;28;20025;-65
2021/01/20 07:12:21;;;;;;;3.63;2.33;;;3.80;80.40;;;;;;5058109;28;20050;-63
2021/01/20 07:14:50;;;;;;;4.30;2.40;;;3.90;82.00;;;;;;5049714;28;20076;-63
2021/01/20 07:17:20;;;;;;;6.07;2.25;;;3.80;82.80;;;;;;5049626;28;20029;-64
2021/01/20 07:19:46;;;;;;;6.97;1.70;;;3.80;83.70;;;;;;5065601;28;20421;-63
2021/01/20 07:22:13;;;;;;;5.35;1.65;;;3.70;83.80;;;;;;5054752;28;20040;-62
2021/01/20 07:24:38;;;;;;;7.93;2.40;;;3.70;84.00;;;;;;5053147;28;20041;-62
2021/01/20 07:27:06;;;;;;;7.07;2.22;;;3.60;85.10;;;;;;5061980;28;20020;-62
2021/01/20 07:29:32;;;;;;;3.17;1.83;;;3.50;86.10;;;;;;5068905;28;20477;-66
2021/01/20 07:31:59;;;;;;;5.57;2.28;;;3.50;86.80;;;;;;5052537;28;20047;-63
2021/01/20 07:34:54;;;;;;;3.10;1.65;;;3.40;85.80;;;;;;5054238;28;20044;-63
2021/01/20 07:37:19;;;;;;;4.93;1.95;;;3.40;86.90;;;;;;5057361;28;20450;-63
2021/01/20 07:39:45;;;;;;;6.22;2.58;;;3.30;87.70;;;;;;5064309;28;20036;-63
2021/01/20 07:42:11;;;;;;;3.97;1.70;;;3.30;87.50;;;;;;5051546;28;20068;-63
2021/01/20 07:44:47;;;;;;;2.70;1.17;;;3.30;85.30;;;;;;5033015;28;20029;-63
2021/01/20 07:47:12;;;;;;;1.80;1.33;;;3.40;85.00;;;;;;5033808;28;20460;-64
2021/01/20 07:49:50;;;;;;;3.63;1.30;;;3.40;85.10;;;;;;5039337;28;20038;-63
2021/01/20 07:52:18;;;;;;;2.63;1.40;;;3.50;83.80;;;;;;5051710;28;20040;-65
2021/01/20 07:54:48;;;;;;;2.47;1.50;;;3.50;83.20;;;;;;5052519;28;20032;-63
2021/01/20 07:57:18;;;;;;;4.47;1.52;;;3.60;82.40;;;;;;5049555;28;20418;-63
2021/01/20 07:59:45;;;;;;;2.38;1.50;;;3.70;81.30;;;;;;5015179;28;20041;-62
2021/01/20 08:02:12;;;;;;;3.45;1.60;;;3.70;80.80;;;;;;5041516;28;20094;-63
2021/01/20 08:04:39;;;;;;;4.38;1.80;;;3.80;80.10;;;;;;5040613;28;20399;-63
2021/01/20 08:07:06;;;;;;;3.38;1.48;;;3.90;79.80;;;;;;5033278;28;20029;-62
2021/01/20 08:09:41;;;;;;;1.58;1.42;;;3.90;80.00;;;;;;5032930;28;20496;-65
2021/01/20 08:12:09;;;;;;;3.00;1.85;;;3.90;80.10;;;;;;5033437;28;20040;-63
2021/01/20 08:14:39;;;;;;;2.97;1.50;;;4.00;79.80;;;;;;5032771;28;20021;-62
2021/01/20 08:17:06;;;;;;;1.75;1.25;;;4.00;78.80;;;;;;5033473;28;20048;-63
2021/01/20 08:19:34;;;;;;;4.78;1.58;;;4.10;77.60;;;;;;5043247;28;20032;-66
2021/01/20 08:22:17;;;;;;;3.22;2.10;;;4.20;77.80;;;;;;5025851;28;20064;-63
2021/01/20 08:24:47;;;;;;;2.85;1.50;;;4.30;77.20;;;;;;5022755;28;20029;-64
2021/01/20 08:27:15;;;;;;;2.35;1.27;;;4.40;76.00;;;;;;5034551;28;20020;-62
2021/01/20 08:29:52;;;;;;;2.55;1.60;;;4.50;74.80;;;;;;5052235;28;20055;-63
2021/01/20 08:32:18;;;;;;;2.30;1.52;;;4.60;74.60;;;;;;5034379;28;20026;-65
2021/01/20 08:34:45;;;;;;;3.15;1.20;;;4.70;74.30;;;;;;5034013;28;20026;-64
2021/01/20 08:37:17;;;;;;;2.40;1.20;;;4.80;74.20;;;;;;5035378;28;20033;-64
2021/01/20 08:39:56;;;;;;;3.85;1.80;;;4.90;73.60;;;;;;5053502;28;20481;-65
2021/01/20 08:42:32;;;;;;;3.72;1.70;;;5.00;72.50;;;;;;5046019;28;20057;-62
2021/01/20 08:45:20;;;;;;;2.85;1.40;;;5.10;72.50;;;;;;5038608;28;20478;-64
2021/01/20 08:47:50;;;;;;;3.85;2.08;;;5.10;72.70;;;;;;5047139;28;20056;-64
2021/01/20 08:50:20;;;;;;;;;;;5.20;72.00;;;;;;5058240;28;20071;-63
2021/01/20 08:52:52;;;;;;;2.90;2.00;;;5.20;73.30;;;;;;5049049;28;19944;-63
2021/01/20 08:55:30;;;;;;;9.25;3.63;;;5.20;72.90;;;;;;5031915;28;20043;-67
2021/01/20 08:58:34;;;;;;;6.57;2.95;;;5.30;73.80;;;;;;5065310;28;20024;-64
2021/01/20 09:01:24;;;;;;;7.05;3.22;;;5.30;73.70;;;;;;5023028;28;20455;-64
2021/01/20 09:03:57;;;;;;;7.45;3.22;;;5.30;74.20;;;;;;5035763;28;20025;-63
2021/01/20 09:06:23;;;;;;;6.63;3.25;;;5.20;74.00;;;;;;5033623;28;20504;-64
2021/01/20 09:08:49;;;;;;;7.40;3.40;;;5.20;73.70;;;;;;5048808;28;20029;-63
2021/01/20 09:11:15;;;;;;;7.40;3.40;;;5.20;73.60;;;;;;5043592;28;20034;-62
2021/01/20 09:13:41;;;;;;;6.65;3.13;;;5.20;74.30;;;;;;5041489;28;20068;-61
2021/01/20 09:16:07;;;;;;;5.93;3.20;;;5.10;74.60;;;;;;5049803;28;20051;-62
2021/01/20 09:18:33;;;;;;;6.22;3.47;;;5.10;74.80;;;;;;5055949;28;20035;-71
2021/01/20 09:21:00;;;;;;;6.70;4.15;;;5.00;75.50;;;;;;5039802;28;20029;-64
2021/01/20 09:23:27;;;;;;;7.18;3.17;;;5.00;76.10;;;;;;5045477;28;20029;-63
2021/01/20 09:25:54;;;;;;;5.60;3.10;;;4.90;76.80;;;;;;5043193;28;20036;-63
2021/01/20 09:28:20;;;;;;;3.78;2.65;;;4.90;77.30;;;;;;5041773;28;20025;-63
2021/01/20 09:30:46;;;;;;;6.38;2.90;;;4.90;75.70;;;;;;5048493;28;20036;-63
2021/01/20 09:33:12;;;;;;;5.78;2.72;;;5.00;73.70;;;;;;5031414;28;20033;-63
2021/01/20 09:35:38;;;;;;;4.70;2.38;;;4.90;74.10;;;;;;5012637;28;20099;-63
2021/01/20 09:38:04;;;;;;;5.13;2.60;;;5.10;73.30;;;;;;5030756;28;20474;-65
2021/01/20 09:40:30;;;;;;;4.90;2.63;;;5.10;72.90;;;;;;5039190;28;20465;-63
2021/01/20 09:42:56;;;;;;;4.00;1.90;;;5.20;72.60;;;;;;5036925;28;20080;-65
2021/01/20 09:45:27;;;;;;;5.47;2.58;;;5.20;72.40;;;;;;5031904;28;20060;-63
2021/01/20 09:47:55;;;;;;;3.58;2.22;;;5.30;72.60;;;;;;5041396;28;20348;-64
2021/01/20 09:50:21;;;;;;;4.80;2.22;;;5.30;72.50;;;;;;5054362;28;20466;-64
2021/01/20 09:52:47;;;;;;;3.70;2.20;;;5.30;72.20;;;;;;5029884;28;20059;-63
2021/01/20 09:55:14;;;;;;;5.13;2.53;;;5.40;71.80;;;;;;5030439;28;20034;-72
2021/01/20 09:57:40;;;;;;;3.40;2.22;;;5.50;71.40;;;;;;5038313;28;20167;-62
2021/01/20 10:00:07;;;;;;;3.38;2.33;;;5.50;71.80;;;;;;5030682;28;20121;-61
2021/01/20 10:02:33;;;;;;;4.70;2.33;;;5.60;71.40;;;;;;5047227;28;20056;-62
2021/01/20 10:04:58;;;;;;;6.60;2.70;;;5.80;71.40;;;;;;5043167;28;20029;-62
2021/01/20 10:07:25;;;;;;;7.20;2.95;;;5.80;69.60;;;;;;5033530;28;20082;-62
2021/01/20 10:09:50;;;;;;;5.75;2.85;;;5.90;70.10;;;;;;5021352;28;20436;-64
2021/01/20 10:12:19;;;;;;;6.20;3.00;;;6.00;69.60;;;;;;5035554;28;20112;-61
2021/01/20 10:14:46;;;;;;;5.10;2.92;;;6.00;70.00;;;;;;5031933;28;20033;-61
2021/01/20 10:17:12;;;;;;;5.88;3.67;;;6.00;70.50;;;;;;5043047;28;20442;-61
2021/01/20 10:19:38;;;;;;;6.70;3.47;;;6.00;70.90;;;;;;5030487;28;20572;-63
2021/01/20 10:22:04;;;;;;;9.00;3.22;;;6.00;71.70;;;;;;5030763;28;20025;-61
2021/01/20 10:24:29;;;;;;;9.98;3.30;;;5.90;72.10;;;;;;5012863;28;20029;-61
2021/01/20 10:26:56;;;;;;;8.30;3.95;;;6.00;71.50;;;;;;5031242;28;20577;-61
2021/01/20 10:29:22;;;;;;;10.05;3.92;;;6.00;71.60;;;;;;5036927;28;20037;-61
2021/01/20 10:31:47;;;;;;;11.25;3.95;;;6.00;72.00;;;;;;5029808;28;20033;-63
2021/01/20 10:34:13;;;;;;;8.65;4.10;;;5.90;72.60;;;;;;5031173;28;20120;-61
2021/01/20 10:36:40;;;;;;;7.10;4.07;;;5.90;71.90;;;;;;5037975;28;20032;-63
2021/01/20 10:39:07;;;;;;;7.93;4.05;;;5.90;72.10;;;;;;5044077;28;20025;-61
2021/01/20 10:41:34;;;;;;;7.07;4.13;;;5.90;72.70;;;;;;5037797;28;20056;-61
2021/01/20 10:43:59;;;;;;;9.40;3.60;;;5.80;72.90;;;;;;5045135;28;20056;-61
2021/01/20 10:46:25;;;;;;;8.07;4.38;;;5.80;73.10;;;;;;5036913;28;20026;-61
2021/01/20 10:48:55;;;;;;;10.32;4.38;;;5.90;72.60;;;;;;5039966;28;20036;-63
2021/01/20 10:51:23;;;;;;;11.38;4.32;;;6.00;71.10;;;;;;5030570;28;20029;-65
2021/01/20 10:53:49;;;;;;;12.45;4.25;;;6.00;71.20;;;;;;5029485;28;20103;-64
2021/01/20 10:56:15;;;;;;;12.30;4.47;;;6.00;72.00;;;;;;5030218;28;20026;-64
2021/01/20 10:58:41;;;;;;;11.07;4.38;;;6.00;72.00;;;;;;5040575;28;20025;-64
2021/01/20 11:01:07;;;;;;;13.65;5.18;;;6.00;71.50;;;;;;5041454;28;20095;-64
2021/01/20 11:03:32;;;;;;;5.78;4.10;;;6.10;71.00;;;;;;5040965;28;20107;-61
2021/01/20 11:05:58;;;;;;;10.15;4.38;;;6.10;71.30;;;;;;5029323;28;20673;-61
2021/01/20 11:08:24;;;;;;;6.63;4.38;;;6.10;71.50;;;;;;5034520;28;20025;-61
2021/01/20 11:10:50;;;;;;;11.38;4.60;;;6.20;71.70;;;;;;5039104;28;20087;-62
2021/01/20 11:13:15;;;;;;;5.85;3.60;;;6.30;71.20;;;;;;5035768;28;20095;-62
2021/01/20 11:15:48;;;;;;;11.07;4.25;;;6.30;71.40;;;;;;5040992;28;20029;-62
2021/01/20 11:18:16;;;;;;;7.50;3.65;;;6.40;70.40;;;;;;5031245;28;20101;-61
2021/01/20 11:20:43;;;;;;;10.02;3.50;;;6.50;68.60;;;;;;5029299;28;20036;-61
2021/01/20 11:23:12;;;;;;;10.32;3.10;;;6.70;68.40;;;;;;5039432;28;20036;-61
2021/01/20 11:25:47;;;;;;;8.65;2.80;;;6.90;68.60;;;;;;5030045;28;20107;-62
2021/01/20 11:28:13;;;;;;;10.00;2.80;;;7.00;67.40;;;;;;5034639;28;20113;-60
2021/01/20 11:30:40;;;;;;;7.18;3.50;;;6.90;66.80;;;;;;5033262;28;20480;-63
2021/01/20 11:33:07;;;;;;;10.68;3.33;;;6.90;67.20;;;;;;5032499;28;20029;-61
2021/01/20 11:35:33;;;;;;;8.35;3.47;;;6.90;66.90;;;;;;5047042;28;20060;-63
2021/01/20 11:37:59;;;;;;;6.05;3.10;;;6.90;67.20;;;;;;5029436;28;20022;-62
2021/01/20 11:40:25;;;;;;;4.38;2.92;;;6.90;67.10;;;;;;5038534;28;20029;-62
2021/01/20 11:43:09;;;;;;;6.32;3.55;;;7.00;66.40;;;;;;5019098;28;20527;-61
2021/01/20 11:45:37;;;;;;;6.65;2.75;;;7.00;66.40;;;;;;5030231;28;20124;-62
2021/01/20 11:48:04;;;;;;;9.02;3.50;;;7.10;65.70;;;;;;5040591;28;20040;-60
2021/01/20 11:50:30;;;;;;;10.95;3.67;;;7.10;65.90;;;;;;5016684;28;20064;-61
2021/01/20 11:52:56;;;;;;;6.05;3.22;;;7.10;65.10;;;;;;5028952;28;20057;-61
2021/01/20 11:55:22;;;;;;;8.40;2.42;;;7.10;65.70;;;;;;5031468;28;20030;-61
2021/01/20 11:57:48;;;;;;;10.30;3.13;;;7.10;65.60;;;;;;5034182;28;20033;-61
2021/01/20 12:00:16;;;;;;;5.45;2.67;;;7.10;66.00;;;;;;5029694;28;20057;-74
2021/01/20 12:02:42;;;;;;;6.70;2.85;;;7.10;66.40;;;;;;5037506;28;20532;-67
2021/01/20 12:05:10;;;;;;;5.25;2.33;;;7.10;65.80;;;;;;5033514;28;20112;-62
2021/01/20 12:07:36;;;;;;;5.50;2.60;;;7.10;66.10;;;;;;5037306;28;20064;-61
2021/01/20 12:10:03;;;;;;;3.85;2.53;;;7.10;64.90;;;;;;5032930;28;20041;-62
2021/01/20 12:12:28;;;;;;;3.80;2.55;;;7.20;65.20;;;;;;5042032;28;20040;-61
2021/01/20 12:14:54;;;;;;;5.28;2.75;;;7.20;64.90;;;;;;5051423;28;20021;-62
2021/01/20 12:17:19;;;;;;;6.15;2.70;;;7.20;65.30;;;;;;5036665;28;20037;-62
2021/01/20 12:19:45;;;;;;;4.78;2.47;;;7.30;64.90;;;;;;5034276;28;20121;-62
2021/01/20 12:22:11;;;;;;;4.00;2.40;;;7.30;65.20;;;;;;5037690;28;20064;-62
2021/01/20 12:24:36;;;;;;;5.72;2.80;;;7.40;65.10;;;;;;5036457;28;20119;-63
2021/01/20 12:27:02;;;;;;;5.75;2.30;;;7.40;65.80;;;;;;5032029;28;20032;-62
2021/01/20 12:29:28;;;;;;;4.43;2.45;;;7.40;64.40;;;;;;5033566;28;20470;-62
2021/01/20 12:31:54;;;;;;;5.15;2.80;;;7.40;63.90;;;;;;5040920;28;20044;-62
2021/01/20 12:34:19;;;;;;;8.25;3.83;;;7.40;64.30;;;;;;5041096;28;20112;-62
2021/01/20 12:36:46;;;;;;;7.18;3.33;;;7.50;65.50;;;;;;5034435;28;20074;-63
2021/01/20 12:39:12;;;;;;;8.23;4.53;;;7.50;64.80;;;;;;5037493;28;20034;-61
2021/01/20 12:41:37;;;;;;;12.40;4.65;;;7.50;65.80;;;;;;5053820;28;20110;-63
2021/01/20 12:44:04;;;;;;;11.40;4.93;;;7.50;66.20;;;;;;5040555;28;20467;-62
2021/01/20 12:46:30;;;;;;;13.45;5.63;;;7.50;66.70;;;;;;5042232;28;20033;-62
2021/01/20 12:48:55;;;;;;;8.40;5.43;;;7.40;66.70;;;;;;5037261;28;20079;-61
2021/01/20 12:51:21;;;;;;;7.53;4.82;;;7.40;66.90;;;;;;5045214;28;20024;-65
2021/01/20 12:53:47;;;;;;;11.25;6.20;;;7.30;67.50;;;;;;5048124;28;20084;-62
2021/01/20 12:56:12;;;;;;;12.00;6.10;;;7.30;67.80;;;;;;5032901;28;20030;-67
2021/01/20 12:58:38;;;;;;;11.73;5.70;;;7.20;68.30;;;;;;5042166;28;20116;-67
2021/01/20 13:01:04;;;;;;;20.40;7.18;;;7.20;68.80;;;;;;5020322;28;20056;-66
2021/01/20 13:03:31;;;;;;;11.95;6.45;;;7.10;69.20;;;;;;5044995;28;20033;-63